Time;durP1;ratioP1;P1;durP2;ratioP2;P2;SDS_P1;SDS_P2;PMS_P1;PMS_P2;Temp;Humidity;BMP_temperature;BMP_pressure;BME280_temperature;BME280_humidity;BME280_pressure;Samples;Min_cycle;Max_cycle;Signal;HPM_P1;HPM_P2
2022/04/01 00:01:14;;;;;;;;;;;;;;;;;;4994704;28;19921;-66
2022/04/01 00:03:40;;;;;;;;;;;;;;;;;;5012764;28;20375;-68
2022/04/01 00:06:06;;;;;;;;;;;;;;;;;;4997562;28;19923;-69
2022/04/01 00:08:32;;;;;;;;;;;;;;;;;;5018632;28;20343;-69
2022/04/01 00:10:58;;;;;;;;;;;;;;;;;;5015585;28;19975;-68
2022/04/01 00:13:24;;;;;;;;;;;;;;;;;;5001895;28;19920;-69
2022/04/01 00:15:50;;;;;;;;;;;;;;;;;;5015813;28;19928;-68
2022/04/01 00:18:16;;;;;;;;;;;;;;;;;;4995067;28;20492;-69
2022/04/01 00:20:42;;;;;;;;;;;;;;;;;;5014838;28;19924;-69
2022/04/01 00:23:08;;;;;;;;;;;;;;;;;;4991765;28;20357;-69
2022/04/01 00:25:34;;;;;;;;;;;;;;;;;;4998297;28;20467;-69
2022/04/01 00:28:00;;;;;;;;;;;;;;;;;;5008894;28;19924;-68
2022/04/01 00:30:26;;;;;;;;;;;;;;;;;;5000363;28;20343;-68
2022/04/01 00:32:52;;;;;;;;;;;;;;;;;;5001447;28;19956;-69
2022/04/01 00:35:18;;;;;;;;;;;;;;;;;;5013881;28;19916;-69
2022/04/01 00:37:44;;;;;;;;;;;;;;;;;;5019076;28;19979;-68
2022/04/01 00:40:12;;;;;;;;;;;;;;;;;;5011200;28;20713;-69
2022/04/01 00:42:38;;;;;;;;;;;;;;;;;;5000457;28;19921;-69
2022/04/01 00:45:04;;;;;;;;;;;;;;;;;;5015998;28;19924;-69
2022/04/01 00:47:30;;;;;;;;;;;;;;;;;;5014788;28;19959;-69
2022/04/01 00:49:56;;;;;;;;;;;;;;;;;;5014851;28;20050;-69
2022/04/01 00:52:22;;;;;;;;;;;;;;;;;;5019518;28;19924;-69
2022/04/01 00:54:48;;;;;;;;;;;;;;;;;;5003675;28;19974;-69
2022/04/01 00:57:14;;;;;;;;;;;;;;;;;;4993429;28;19917;-69
2022/04/01 00:59:40;;;;;;;;;;;;;;;;;;5022335;28;19916;-69
2022/04/01 01:02:08;;;;;;;;;;;;;;;;;;5016382;28;19921;-69
2022/04/01 01:04:34;;;;;;;;;;;;;;;;;;5019767;28;19979;-69
2022/04/01 01:07:00;;;;;;;;;;;;;;;;;;5011571;28;20011;-69
2022/04/01 01:09:27;;;;;;;;;;;;;;;;;;4999711;28;19999;-68
2022/04/01 01:11:53;;;;;;;;;;;;;;;;;;5020389;28;19917;-69
2022/04/01 01:14:19;;;;;;;;;;;;;;;;;;4998820;28;19924;-69
2022/04/01 01:16:48;;;;;;;;;;;;;;;;;;5015358;28;20470;-69
2022/04/01 01:19:15;;;;;;;;;;;;;;;;;;5012490;28;19998;-69
2022/04/01 01:21:41;;;;;;;;;;;;;;;;;;5000306;28;20032;-69
2022/04/01 01:24:07;;;;;;;;;;;;;;;;;;4996511;28;19925;-70
2022/04/01 01:26:33;;;;;;;;;;;;;;;;;;5013504;28;19994;-69
2022/04/01 01:28:59;;;;;;;;;;;;;;;;;;5014087;28;19952;-68
2022/04/01 01:31:25;;;;;;;;;;;;;;;;;;5004315;28;20019;-69
2022/04/01 01:33:51;;;;;;;;;;;;;;;;;;5018945;28;19924;-68
2022/04/01 01:36:17;;;;;;;;;;;;;;;;;;5010409;28;19917;-69
2022/04/01 01:38:43;;;;;;;;;;;;;;;;;;5004033;28;19916;-69
2022/04/01 01:41:09;;;;;;;;;;;;;;;;;;4993499;28;20316;-69
2022/04/01 01:43:35;;;;;;;;;;;;;;;;;;5002044;28;20006;-69
2022/04/01 01:46:01;;;;;;;;;;;;;;;;;;5000768;28;20292;-69
2022/04/01 01:48:27;;;;;;;;;;;;;;;;;;5012496;28;19961;-68
2022/04/01 01:56:22;;;;;;;;;;;;;;;;;;5015861;28;20228;-69
2022/04/01 01:58:48;;;;;;;;;;;;;;;;;;5018654;28;19917;-68
2022/04/01 02:01:15;;;;;;;;;;;;;;;;;;5011311;28;20244;-68
2022/04/01 02:03:41;;;;;;;;;;;;;;;;;;5016228;28;20363;-68
2022/04/01 02:06:07;;;;;;;;;;;;;;;;;;5010668;28;19917;-69
2022/04/01 02:08:33;;;;;;;;;;;;;;;;;;5000647;28;19921;-68
2022/04/01 02:10:59;;;;;;;;;;;;;;;;;;5010487;28;20471;-68
2022/04/01 02:13:29;;;;;;;;;;;;;;;;;;5015200;28;20434;-69
2022/04/01 02:15:55;;;;;;;;;;;;;;;;;;5016291;28;19970;-68
2022/04/01 02:18:21;;;;;;;;;;;;;;;;;;5013000;28;20856;-69
2022/04/01 02:20:48;;;;;;;;;;;;;;;;;;4998858;28;20429;-69
2022/04/01 02:23:14;;;;;;;;;;;;;;;;;;5010773;28;20012;-69
2022/04/01 02:25:42;;;;;;;;;;;;;;;;;;5017578;28;20005;-68
2022/04/01 02:28:08;;;;;;;;;;;;;;;;;;5012536;28;20150;-69
2022/04/01 02:30:34;;;;;;;;;;;;;;;;;;5019569;28;20244;-68
2022/04/01 02:33:02;;;;;;;;;;;;;;;;;;4995805;28;19921;-68
2022/04/01 02:35:28;;;;;;;;;;;;;;;;;;4995539;28;19917;-68
2022/04/01 02:37:54;;;;;;;;;;;;;;;;;;4996197;28;19963;-68
2022/04/01 02:40:20;;;;;;;;;;;;;;;;;;5013423;28;19917;-68
2022/04/01 02:42:46;;;;;;;;;;;;;;;;;;5014533;28;19921;-68
2022/04/01 02:45:13;;;;;;;;;;;;;;;;;;5008453;28;20372;-69
2022/04/01 02:47:39;;;;;;;;;;;;;;;;;;5017807;28;19964;-69
2022/04/01 02:50:05;;;;;;;;;;;;;;;;;;5002797;28;20398;-68
2022/04/01 02:52:32;;;;;;;;;;;;;;;;;;5005326;28;19916;-69
2022/04/01 02:54:58;;;;;;;;;;;;;;;;;;5016596;28;20462;-68
2022/04/01 02:57:23;;;;;;;;;;;;;;;;;;5002139;28;19976;-69
2022/04/01 02:59:49;;;;;;;;;;;;;;;;;;5020551;28;20221;-68
2022/04/01 03:02:15;;;;;;;;;;;;;;;;;;5004188;28;19925;-68
2022/04/01 03:04:42;;;;;;;;;;;;;;;;;;5017560;28;20039;-68
2022/04/01 03:07:08;;;;;;;;;;;;;;;;;;5017102;28;20451;-68
2022/04/01 03:09:34;;;;;;;;;;;;;;;;;;5022723;28;20445;-68
2022/04/01 03:12:00;;;;;;;;;;;;;;;;;;5001463;28;20566;-68
2022/04/01 03:14:26;;;;;;;;;;;;;;;;;;5004587;28;19916;-68
2022/04/01 03:16:52;;;;;;;;;;;;;;;;;;5002524;28;20584;-68
2022/04/01 03:19:19;;;;;;;;;;;;;;;;;;5011256;28;19967;-68
2022/04/01 03:21:45;;;;;;;;;;;;;;;;;;5019555;28;19916;-69
2022/04/01 03:24:11;;;;;;;;;;;;;;;;;;5018631;28;20593;-68
2022/04/01 03:26:37;;;;;;;;;;;;;;;;;;5005073;28;19917;-68
2022/04/01 03:29:03;;;;;;;;;;;;;;;;;;4999920;28;19978;-68
2022/04/01 03:31:29;;;;;;;;;;;;;;;;;;5022886;28;20019;-68
2022/04/01 03:33:58;;;;;;;;;;;;;;;;;;4999116;28;20355;-68
2022/04/01 03:36:24;;;;;;;;;;;;;;;;;;5018316;28;19978;-68
2022/04/01 03:38:51;;;;;;;;;;;;;;;;;;5018604;28;19925;-68
2022/04/01 03:41:17;;;;;;;;;;;;;;;;;;5015624;28;20004;-68
2022/04/01 03:43:43;;;;;;;;;;;;;;;;;;5020846;28;19925;-68
2022/04/01 03:46:09;;;;;;;;;;;;;;;;;;5016707;28;20268;-68
2022/04/01 03:48:35;;;;;;;;;;;;;;;;;;5018048;28;20387;-68
2022/04/01 03:51:04;;;;;;;;;;;;;;;;;;5014953;28;19928;-68
2022/04/01 03:53:30;;;;;;;;;;;;;;;;;;5002118;28;19939;-68
2022/04/01 03:55:56;;;;;;;;;;;;;;;;;;5013386;28;20458;-68
2022/04/01 03:58:22;;;;;;;;;;;;;;;;;;5013333;28;20310;-70
2022/04/01 04:00:48;;;;;;;;;;;;;;;;;;5016675;28;20411;-68
2022/04/01 04:03:14;;;;;;;;;;;;;;;;;;5014116;28;19921;-68
2022/04/01 04:05:40;;;;;;;;;;;;;;;;;;5016850;28;20976;-68
2022/04/01 04:08:06;;;;;;;;;;;;;;;;;;5012546;28;19956;-68
2022/04/01 04:10:34;;;;;;;;;;;;;;;;;;5018231;28;19917;-68
2022/04/01 04:13:00;;;;;;;;;;;;;;;;;;5014888;28;20290;-72
2022/04/01 04:15:26;;;;;;;;;;;;;;;;;;4999419;28;20710;-71
2022/04/01 04:17:52;;;;;;;;;;;;;;;;;;5018807;28;20091;-66
2022/04/01 04:20:18;;;;;;;;;;;;;;;;;;4996861;28;20517;-69
2022/04/01 04:22:45;;;;;;;;;;;;;;;;;;5015477;28;19916;-69
2022/04/01 04:25:13;;;;;;;;;;;;;;;;;;4993210;28;19948;-68
2022/04/01 04:27:39;;;;;;;;;;;;;;;;;;4999550;28;20328;-68
2022/04/01 04:30:08;;;;;;;;;;;;;;;;;;5014541;28;19925;-67
2022/04/01 04:32:34;;;;;;;;;;;;;;;;;;5000757;28;19928;-68
2022/04/01 04:35:00;;;;;;;;;;;;;;;;;;5011364;28;19925;-67
2022/04/01 04:37:26;;;;;;;;;;;;;;;;;;5018501;28;20627;-67
2022/04/01 04:39:52;;;;;;;;;;;;;;;;;;5002700;28;19920;-68
2022/04/01 04:42:18;;;;;;;;;;;;;;;;;;5009413;28;19917;-68
2022/04/01 04:44:44;;;;;;;;;;;;;;;;;;5000785;28;20380;-68
2022/04/01 04:47:10;;;;;;;;;;;;;;;;;;4999018;28;19924;-68
2022/04/01 04:49:36;;;;;;;;;;;;;;;;;;5016902;28;20004;-68
2022/04/01 04:52:02;;;;;;;;;;;;;;;;;;5005803;28;19916;-67
2022/04/01 04:54:28;;;;;;;;;;;;;;;;;;5001083;28;19967;-67
2022/04/01 04:56:54;;;;;;;;;;;;;;;;;;5015395;28;19917;-67
2022/04/01 04:59:22;;;;;;;;;;;;;;;;;;5013646;28;20102;-67
2022/04/01 05:01:48;;;;;;;;;;;;;;;;;;5000229;28;19921;-67
2022/04/01 05:04:14;;;;;;;;;;;;;;;;;;5015040;28;20297;-67
2022/04/01 05:06:40;;;;;;;;;;;;;;;;;;5012261;28;20106;-67
2022/04/01 05:09:06;;;;;;;;;;;;;;;;;;5012543;28;19924;-68
2022/04/01 05:11:32;;;;;;;;;;;;;;;;;;4996366;28;19921;-67
2022/04/01 05:13:58;;;;;;;;;;;;;;;;;;4998951;28;19921;-67
2022/04/01 05:16:24;;;;;;;;;;;;;;;;;;4997794;28;20733;-68
2022/04/01 05:18:50;;;;;;;;;;;;;;;;;;5012390;28;20567;-68
2022/04/01 05:21:18;;;;;;;;;;;;;;;;;;5013277;28;19990;-68
2022/04/01 05:23:44;;;;;;;;;;;;;;;;;;5015920;28;19917;-68
2022/04/01 05:26:11;;;;;;;;;;;;;;;;;;5005782;28;19923;-68
2022/04/01 05:28:37;;;;;;;;;;;;;;;;;;4999796;28;20276;-68
2022/04/01 05:31:04;;;;;;;;;;;;;;;;;;5000266;28;20391;-68
2022/04/01 05:33:30;;;;;;;;;;;;;;;;;;5012554;28;19917;-68
2022/04/01 05:35:56;;;;;;;;;;;;;;;;;;4994769;28;20332;-67
2022/04/01 05:38:22;;;;;;;;;;;;;;;;;;5012109;28;19920;-68
2022/04/01 05:40:48;;;;;;;;;;;;;;;;;;5019486;28;20391;-69
2022/04/01 05:43:14;;;;;;;;;;;;;;;;;;5014969;28;19931;-68
2022/04/01 05:45:40;;;;;;;;;;;;;;;;;;5002310;28;21769;-69
2022/04/01 05:48:09;;;;;;;;;;;;;;;;;;5015137;28;19975;-69
2022/04/01 05:50:34;;;;;;;;;;;;;;;;;;4997544;28;19921;-68
2022/04/01 05:53:00;;;;;;;;;;;;;;;;;;4997832;28;20291;-69
2022/04/01 05:55:26;;;;;;;;;;;;;;;;;;4994914;28;19975;-69
2022/04/01 05:57:52;;;;;;;;;;;;;;;;;;5015288;28;19920;-69
2022/04/01 06:00:18;;;;;;;;;;;;;;;;;;5013614;28;19924;-69
2022/04/01 06:02:44;;;;;;;;;;;;;;;;;;4998974;28;19928;-69
2022/04/01 06:05:10;;;;;;;;;;;;;;;;;;4996875;28;20240;-69
2022/04/01 06:07:37;;;;;;;;;;;;;;;;;;5014691;28;20394;-69
2022/04/01 06:10:05;;;;;;;;;;;;;;;;;;4990269;28;19927;-69
2022/04/01 06:12:31;;;;;;;;;;;;;;;;;;4995872;28;19921;-69
2022/04/01 06:14:57;;;;;;;;;;;;;;;;;;4993677;28;19917;-70
2022/04/01 06:17:23;;;;;;;;;;;;;;;;;;5014358;28;19998;-69
2022/04/01 06:19:50;;;;;;;;;;;;;;;;;;5015225;28;20436;-69
2022/04/01 06:22:16;;;;;;;;;;;;;;;;;;5014859;28;20713;-69
2022/04/01 06:24:42;;;;;;;;;;;;;;;;;;5021988;28;20516;-69
2022/04/01 06:27:08;;;;;;;;;;;;;;;;;;5016824;28;19916;-69
2022/04/01 06:29:34;;;;;;;;;;;;;;;;;;5019502;28;20015;-69
2022/04/01 06:32:00;;;;;;;;;;;;;;;;;;4998959;28;20512;-68
2022/04/01 06:34:26;;;;;;;;;;;;;;;;;;4999356;28;19917;-69
2022/04/01 06:36:52;;;;;;;;;;;;;;;;;;5022169;28;20200;-69
2022/04/01 06:39:18;;;;;;;;;;;;;;;;;;4998595;28;19960;-69
2022/04/01 06:41:45;;;;;;;;;;;;;;;;;;5016962;28;20484;-69
2022/04/01 06:44:11;;;;;;;;;;;;;;;;;;5014784;28;20007;-69
2022/04/01 06:46:37;;;;;;;;;;;;;;;;;;5022449;28;20429;-69
2022/04/01 06:49:08;;;;;;;;;;;;;;;;;;5016486;28;19928;-69
2022/04/01 06:51:34;;;;;;;;;;;;;;;;;;5018846;28;20158;-69
2022/04/01 06:54:00;;;;;;;;;;;;;;;;;;5000893;28;19968;-69
2022/04/01 06:56:26;;;;;;;;;;;;;;;;;;5005756;28;20052;-69
2022/04/01 06:58:52;;;;;;;;;;;;;;;;;;5016519;28;20271;-69
2022/04/01 07:01:18;;;;;;;;;;;;;;;;;;5017482;28;19921;-68
2022/04/01 07:03:44;;;;;;;;;;;;;;;;;;5021886;28;20012;-69
2022/04/01 07:06:10;;;;;;;;;;;;;;;;;;5017441;28;20007;-69
2022/04/01 07:08:36;;;;;;;;;;;;;;;;;;5021810;28;19929;-69
2022/04/01 07:11:02;;;;;;;;;;;;;;;;;;5012966;28;19924;-69
2022/04/01 07:13:29;;;;;;;;;;;;;;;;;;5002995;28;19917;-69
2022/04/01 07:15:55;;;;;;;;;;;;;;;;;;5018629;28;19917;-69
2022/04/01 07:18:22;;;;;;;;;;;;;;;;;;5016804;28;20428;-69
2022/04/01 07:20:48;;;;;;;;;;;;;;;;;;4996403;28;20425;-69
2022/04/01 07:23:14;;;;;;;;;;;;;;;;;;5012847;28;19917;-69
2022/04/01 07:25:40;;;;;;;;;;;;;;;;;;5019487;28;19928;-68
2022/04/01 07:28:09;;;;;;;;;;;;;;;;;;5015358;28;19917;-69
2022/04/01 07:30:35;;;;;;;;;;;;;;;;;;4986375;28;20601;-69
2022/04/01 07:33:01;;;;;;;;;;;;;;;;;;5012449;28;19963;-69
2022/04/01 07:35:27;;;;;;;;;;;;;;;;;;5015459;28;20003;-69
2022/04/01 07:37:53;;;;;;;;;;;;;;;;;;4993949;28;20573;-69
2022/04/01 07:40:19;;;;;;;;;;;;;;;;;;5005719;28;20561;-67
2022/04/01 07:42:45;;;;;;;;;;;;;;;;;;5009507;28;19924;-68
2022/04/01 07:45:11;;;;;;;;;;;;;;;;;;5008991;28;19917;-70
2022/04/01 07:47:37;;;;;;;;;;;;;;;;;;5009197;28;20031;-70
2022/04/01 07:50:04;;;;;;;;;;;;;;;;;;5000400;28;20020;-70
2022/04/01 07:52:30;;;;;;;;;;;;;;;;;;5010685;28;19948;-70
2022/04/01 07:54:57;;;;;;;;;;;;;;;;;;4995513;28;20633;-70
2022/04/01 07:57:23;;;;;;;;;;;;;;;;;;5012928;28;20356;-69
2022/04/01 07:59:49;;;;;;;;;;;;;;;;;;5010900;28;19964;-70
2022/04/01 08:02:15;;;;;;;;;;;;;;;;;;4989920;28;19921;-70
2022/04/01 08:04:41;;;;;;;;;;;;;;;;;;5010459;28;19927;-69
2022/04/01 08:07:07;;;;;;;;;;;;;;;;;;5004317;28;19917;-69
2022/04/01 08:09:33;;;;;;;;;;;;;;;;;;4999888;28;19932;-69
2022/04/01 08:11:59;;;;;;;;;;;;;;;;;;5005329;28;19917;-70
2022/04/01 08:14:25;;;;;;;;;;;;;;;;;;5014412;28;19970;-70
2022/04/01 08:16:51;;;;;;;;;;;;;;;;;;5006090;28;20361;-69
2022/04/01 08:19:17;;;;;;;;;;;;;;;;;;4995072;28;20236;-70
2022/04/01 08:21:47;;;;;;;;;;;;;;;;;;5013033;28;19924;-69
2022/04/01 08:24:13;;;;;;;;;;;;;;;;;;5001995;28;19948;-69
2022/04/01 08:26:39;;;;;;;;;;;;;;;;;;5007886;28;20436;-69
2022/04/01 08:29:05;;;;;;;;;;;;;;;;;;4996150;28;19925;-69
2022/04/01 08:31:33;;;;;;;;;;;;;;;;;;5009365;28;19995;-69
2022/04/01 08:33:59;;;;;;;;;;;;;;;;;;5004405;28;19921;-69
2022/04/01 08:36:26;;;;;;;;;;;;;;;;;;5009488;28;20226;-69
2022/04/01 08:38:52;;;;;;;;;;;;;;;;;;4995883;28;20674;-69
2022/04/01 08:41:18;;;;;;;;;;;;;;;;;;5005687;28;20008;-69
2022/04/01 08:43:45;;;;;;;;;;;;;;;;;;4999075;28;19924;-69
2022/04/01 08:46:11;;;;;;;;;;;;;;;;;;4986728;28;20047;-69
2022/04/01 08:48:37;;;;;;;;;;;;;;;;;;5005285;28;19921;-69
2022/04/01 08:51:03;;;;;;;;;;;;;;;;;;5010179;28;20417;-69
2022/04/01 08:53:29;;;;;;;;;;;;;;;;;;5013899;28;19922;-69
2022/04/01 08:55:55;;;;;;;;;;;;;;;;;;5010897;28;19917;-69
2022/04/01 08:58:21;;;;;;;;;;;;;;;;;;5010853;28;19971;-69
2022/04/01 09:00:47;;;;;;;;;;;;;;;;;;5008715;28;20008;-69
2022/04/01 09:03:13;;;;;;;;;;;;;;;;;;5005358;28;20461;-69
2022/04/01 09:05:39;;;;;;;;;;;;;;;;;;5011409;28;19928;-69
2022/04/01 09:08:05;;;;;;;;;;;;;;;;;;5006559;28;20564;-69
2022/04/01 09:10:31;;;;;;;;;;;;;;;;;;5008534;28;20011;-69
2022/04/01 09:12:57;;;;;;;;;;;;;;;;;;5005299;28;19923;-69
2022/04/01 09:15:23;;;;;;;;;;;;;;;;;;5003011;28;20448;-69
2022/04/01 09:17:49;;;;;;;;;;;;;;;;;;4969221;28;20307;-69
2022/04/01 09:20:15;;;;;;;;;;;;;;;;;;5017661;28;20269;-69
2022/04/01 09:22:41;;;;;;;;;;;;;;;;;;5026565;28;20698;-69
2022/04/01 09:25:07;;;;;;;;;;;;;;;;;;5018786;28;19923;-69
2022/04/01 09:27:33;;;;;;;;;;;;;;;;;;5005085;28;20441;-69
2022/04/01 09:29:59;;;;;;;;;;;;;;;;;;5018955;28;20075;-69
2022/04/01 09:32:25;;;;;;;;;;;;;;;;;;5019732;28;20366;-69
2022/04/01 09:34:51;;;;;;;;;;;;;;;;;;5022316;28;19923;-69
2022/04/01 09:37:17;;;;;;;;;;;;;;;;;;5009934;28;19986;-70
2022/04/01 09:39:43;;;;;;;;;;;;;;;;;;5020655;28;19917;-70
2022/04/01 09:42:09;;;;;;;;;;;;;;;;;;5015198;28;19929;-69
2022/04/01 09:44:35;;;;;;;;;;;;;;;;;;5021845;28;20461;-69
2022/04/01 09:47:01;;;;;;;;;;;;;;;;;;4996837;28;19931;-69
2022/04/01 09:49:27;;;;;;;;;;;;;;;;;;5022834;28;20394;-69
2022/04/01 09:51:53;;;;;;;;;;;;;;;;;;5004515;28;20046;-69
2022/04/01 09:54:19;;;;;;;;;;;;;;;;;;4971253;28;19917;-69
2022/04/01 09:56:45;;;;;;;;;;;;;;;;;;4973200;28;19940;-69
2022/04/01 09:59:11;;;;;;;;;;;;;;;;;;4966980;28;20681;-69
2022/04/01 10:01:37;;;;;;;;;;;;;;;;;;4971517;28;20052;-69
2022/04/01 10:04:03;;;;;;;;;;;;;;;;;;4966188;28;19917;-69
2022/04/01 10:06:29;;;;;;;;;;;;;;;;;;4953591;28;20755;-69
2022/04/01 10:08:55;;;;;;;;;;;;;;;;;;4956360;28;20410;-69
2022/04/01 10:11:23;;;;;;;;;;;;;;;;;;4970265;28;19917;-69
2022/04/01 10:13:49;;;;;;;;;;;;;;;;;;4973617;28;20032;-69
2022/04/01 10:16:15;;;;;;;;;;;;;;;;;;4970046;28;19917;-69
2022/04/01 10:18:41;;;;;;;;;;;;;;;;;;4973629;28;19929;-69
2022/04/01 10:21:07;;;;;;;;;;;;;;;;;;4967327;28;20379;-69
2022/04/01 10:23:33;;;;;;;;;;;;;;;;;;4972606;28;19923;-69
2022/04/01 10:25:59;;;;;;;;;;;;;;;;;;4970478;28;19994;-69
2022/04/01 10:28:25;;;;;;;;;;;;;;;;;;4966990;28;19916;-69
2022/04/01 10:30:51;;;;;;;;;;;;;;;;;;4997666;28;19928;-69
2022/04/01 10:33:17;;;;;;;;;;;;;;;;;;5017311;28;20690;-69
2022/04/01 10:35:43;;;;;;;;;;;;;;;;;;5021298;28;20205;-69
2022/04/01 10:38:09;;;;;;;;;;;;;;;;;;4998454;28;19924;-69
2022/04/01 10:40:35;;;;;;;;;;;;;;;;;;5020587;28;20244;-70
2022/04/01 10:43:01;;;;;;;;;;;;;;;;;;4996732;28;20435;-69
2022/04/01 10:45:27;;;;;;;;;;;;;;;;;;5018098;28;19916;-69
2022/04/01 10:53:22;;;;;;;;;;;;;;;;;;5020086;28;19990;-69
2022/04/01 10:55:48;;;;;;;;;;;;;;;;;;5012473;28;20635;-69
2022/04/01 10:58:14;;;;;;;;;;;;;;;;;;4994303;28;19917;-70
2022/04/01 11:00:40;;;;;;;;;;;;;;;;;;5022437;28;20416;-70
2022/04/01 11:03:06;;;;;;;;;;;;;;;;;;5000661;28;19987;-70
2022/04/01 11:05:32;;;;;;;;;;;;;;;;;;5013768;28;19970;-70
2022/04/01 11:07:58;;;;;;;;;;;;;;;;;;5015794;28;19928;-68
2022/04/01 11:10:27;;;;;;;;;;;;;;;;;;5002191;28;19921;-69
2022/04/01 11:12:54;;;;;;;;;;;;;;;;;;5010926;28;19921;-69
2022/04/01 11:15:21;;;;;;;;;;;;;;;;;;5022272;28;19917;-69
2022/04/01 11:17:49;;;;;;;;;;;;;;;;;;5022116;28;19932;-69
2022/04/01 11:20:16;;;;;;;;;;;;;;;;;;5018906;28;19951;-69
2022/04/01 11:22:42;;;;;;;;;;;;;;;;;;5005027;28;19924;-69
2022/04/01 11:25:08;;;;;;;;;;;;;;;;;;5000273;28;19924;-68
2022/04/01 11:27:34;;;;;;;;;;;;;;;;;;5020605;28;19925;-69
2022/04/01 11:30:00;;;;;;;;;;;;;;;;;;4995948;28;20291;-69
2022/04/01 11:32:26;;;;;;;;;;;;;;;;;;5033521;28;19968;-69
2022/04/01 11:34:52;;;;;;;;;;;;;;;;;;5023916;28;19924;-69
2022/04/01 11:37:18;;;;;;;;;;;;;;;;;;5016286;28;20598;-69
2022/04/01 11:39:44;;;;;;;;;;;;;;;;;;5017271;28;19916;-69
2022/04/01 11:42:10;;;;;;;;;;;;;;;;;;5001032;28;19921;-68
2022/04/01 11:44:36;;;;;;;;;;;;;;;;;;5021845;28;20019;-70
2022/04/01 11:47:02;;;;;;;;;;;;;;;;;;5013082;28;20292;-68
2022/04/01 11:49:28;;;;;;;;;;;;;;;;;;5006014;28;19944;-69
2022/04/01 11:51:54;;;;;;;;;;;;;;;;;;5021586;28;20359;-71
2022/04/01 11:54:21;;;;;;;;;;;;;;;;;;5017805;28;20259;-69
2022/04/01 11:56:47;;;;;;;;;;;;;;;;;;5021007;28;19927;-70
2022/04/01 11:59:13;;;;;;;;;;;;;;;;;;5007624;28;20341;-70
2022/04/01 12:01:54;;;;;;;;;;;;;;;;;;5016318;28;19921;-70
2022/04/01 12:04:20;;;;;;;;;;;;;;;;;;5008374;28;19918;-70
2022/04/01 12:09:31;;;;;;;;;;;;;;;;;;5009303;28;19975;-70
2022/04/01 12:11:58;;;;;;;;;;;;;;;;;;5007301;28;20011;-70
2022/04/01 12:14:24;;;;;;;;;;;;;;;;;;5008021;28;20346;-72
2022/04/01 12:16:50;;;;;;;;;;;;;;;;;;5012509;28;19917;-69
2022/04/01 12:19:19;;;;;;;;;;;;;;;;;;5005339;28;19943;-69
2022/04/01 12:21:45;;;;;;;;;;;;;;;;;;5012153;28;19956;-70
2022/04/01 12:24:12;;;;;;;;;;;;;;;;;;5003817;28;20027;-70
2022/04/01 12:26:39;;;;;;;;;;;;;;;;;;5010364;28;20313;-70
2022/04/01 12:29:05;;;;;;;;;;;;;;;;;;5002344;28;19925;-70
2022/04/01 12:31:31;;;;;;;;;;;;;;;;;;4996138;28;19927;-70
2022/04/01 12:33:57;;;;;;;;;;;;;;;;;;4990478;28;20366;-71
2022/04/01 12:36:23;;;;;;;;;;;;;;;;;;5005657;28;20342;-70
2022/04/01 12:38:49;;;;;;;;;;;;;;;;;;5009652;28;19921;-70
2022/04/01 12:41:15;;;;;;;;;;;;;;;;;;5002143;28;19924;-69
2022/04/01 12:43:42;;;;;;;;;;;;;;;;;;5009816;28;19947;-70
2022/04/01 12:46:08;;;;;;;;;;;;;;;;;;5002311;28;19963;-70
2022/04/01 12:48:34;;;;;;;;;;;;;;;;;;4997718;28;19931;-70
2022/04/01 12:51:03;;;;;;;;;;;;;;;;;;5002888;28;20002;-69
2022/04/01 12:53:29;;;;;;;;;;;;;;;;;;5008257;28;20635;-70
2022/04/01 12:55:55;;;;;;;;;;;;;;;;;;5008833;28;19917;-69
2022/04/01 12:58:22;;;;;;;;;;;;;;;;;;5009602;28;19917;-69
2022/04/01 13:00:48;;;;;;;;;;;;;;;;;;5008166;28;19917;-69
2022/04/01 13:03:15;;;;;;;;;;;;;;;;;;5002362;28;19928;-71
2022/04/01 13:05:41;;;;;;;;;;;;;;;;;;5008353;28;19924;-70
2022/04/01 13:08:07;;;;;;;;;;;;;;;;;;5005962;28;19974;-70
2022/04/01 13:10:33;;;;;;;;;;;;;;;;;;5003368;28;19925;-71
2022/04/01 13:12:59;;;;;;;;;;;;;;;;;;5004348;28;19917;-69
2022/04/01 13:15:27;;;;;;;;;;;;;;;;;;5008336;28;20282;-69
2022/04/01 13:17:53;;;;;;;;;;;;;;;;;;4991789;28;19926;-69
2022/04/01 13:20:19;;;;;;;;;;;;;;;;;;4983776;28;20779;-69
2022/04/01 13:22:45;;;;;;;;;;;;;;;;;;4991836;28;21267;-71
2022/04/01 13:25:14;;;;;;;;;;;;;;;;;;4982654;28;19924;-71
2022/04/01 13:27:40;;;;;;;;;;;;;;;;;;4990726;28;20320;-69
2022/04/01 13:30:06;;;;;;;;;;;;;;;;;;4987556;28;19980;-71
2022/04/01 13:32:32;;;;;;;;;;;;;;;;;;4990899;28;19968;-71
2022/04/01 13:34:58;;;;;;;;;;;;;;;;;;4990111;28;20236;-71
2022/04/01 13:37:24;;;;;;;;;;;;;;;;;;4989019;28;20720;-70
2022/04/01 13:39:49;;;;;;;;;;;;;;;;;;4988630;28;19999;-71
2022/04/01 13:42:19;;;;;;;;;;;;;;;;;;4986409;28;20411;-71
2022/04/01 13:44:45;;;;;;;;;;;;;;;;;;4993082;28;19917;-71
2022/04/01 13:47:11;;;;;;;;;;;;;;;;;;4983843;28;19924;-71
2022/04/01 13:49:37;;;;;;;;;;;;;;;;;;4989504;28;19928;-71
2022/04/01 13:52:03;;;;;;;;;;;;;;;;;;4985012;28;19918;-71
2022/04/01 13:54:29;;;;;;;;;;;;;;;;;;4990274;28;20427;-71
2022/04/01 13:56:55;;;;;;;;;;;;;;;;;;4987656;28;19917;-70
2022/04/01 13:59:21;;;;;;;;;;;;;;;;;;4987052;28;19987;-70
2022/04/01 14:01:48;;;;;;;;;;;;;;;;;;4987213;28;20009;-71
2022/04/01 14:04:14;;;;;;;;;;;;;;;;;;4986279;28;20574;-71
2022/04/01 14:06:41;;;;;;;;;;;;;;;;;;4986756;28;20341;-70
2022/04/01 14:09:07;;;;;;;;;;;;;;;;;;4980351;28;20161;-70
2022/04/01 14:11:35;;;;;;;;;;;;;;;;;;4981312;28;19924;-71
2022/04/01 14:14:01;;;;;;;;;;;;;;;;;;4984810;28;20353;-70
2022/04/01 14:16:28;;;;;;;;;;;;;;;;;;4989652;28;19971;-70
2022/04/01 14:18:53;;;;;;;;;;;;;;;;;;4982664;28;19925;-71
2022/04/01 14:21:21;;;;;;;;;;;;;;;;;;4980590;28;20763;-71
2022/04/01 14:23:47;;;;;;;;;;;;;;;;;;4989609;28;20036;-71
2022/04/01 14:26:13;;;;;;;;;;;;;;;;;;4990171;28;20999;-70
2022/04/01 14:28:39;;;;;;;;;;;;;;;;;;4985792;28;20438;-70
2022/04/01 14:31:05;;;;;;;;;;;;;;;;;;4985538;28;19928;-70
2022/04/01 14:33:31;;;;;;;;;;;;;;;;;;4987989;28;19917;-71
2022/04/01 14:35:57;;;;;;;;;;;;;;;;;;4988713;28;19917;-71
2022/04/01 14:38:23;;;;;;;;;;;;;;;;;;4987253;28;20457;-70
2022/04/01 14:40:49;;;;;;;;;;;;;;;;;;4986839;28;20351;-70
2022/04/01 14:43:16;;;;;;;;;;;;;;;;;;4999954;28;19925;-69
2022/04/01 14:45:42;;;;;;;;;;;;;;;;;;4994542;28;19921;-70
2022/04/01 14:48:08;;;;;;;;;;;;;;;;;;4993419;28;19986;-70
2022/04/01 14:50:36;;;;;;;;;;;;;;;;;;4999900;28;19925;-70
2022/04/01 14:53:02;;;;;;;;;;;;;;;;;;4998128;28;20014;-69
2022/04/01 14:55:28;;;;;;;;;;;;;;;;;;4995994;28;19921;-69
2022/04/01 14:57:54;;;;;;;;;;;;;;;;;;4997573;28;19921;-70
2022/04/01 15:00:20;;;;;;;;;;;;;;;;;;4995038;28;20115;-69
2022/04/01 15:02:46;;;;;;;;;;;;;;;;;;4996135;28;20125;-70
2022/04/01 15:05:16;;;;;;;;;;;;;;;;;;4996916;28;20012;-70
2022/04/01 15:07:42;;;;;;;;;;;;;;;;;;5003628;28;19917;-70
2022/04/01 15:10:08;;;;;;;;;;;;;;;;;;4997281;28;20727;-69
2022/04/01 15:12:34;;;;;;;;;;;;;;;;;;5020556;28;20036;-70
2022/04/01 15:15:00;;;;;;;;;;;;;;;;;;5000185;28;20524;-72
2022/04/01 15:17:26;;;;;;;;;;;;;;;;;;5010474;28;19921;-71
2022/04/01 15:19:52;;;;;;;;;;;;;;;;;;5014497;28;20462;-74
2022/04/01 15:22:18;;;;;;;;;;;;;;;;;;5018060;28;20462;-73
2022/04/01 15:24:44;;;;;;;;;;;;;;;;;;5015757;28;19919;-70
2022/04/01 15:27:10;;;;;;;;;;;;;;;;;;5011583;28;19921;-69
2022/04/01 15:29:36;;;;;;;;;;;;;;;;;;4998429;28;20025;-68
2022/04/01 15:32:02;;;;;;;;;;;;;;;;;;4998270;28;20045;-68
2022/04/01 15:34:28;;;;;;;;;;;;;;;;;;4999319;28;19917;-68
2022/04/01 15:36:54;;;;;;;;;;;;;;;;;;5015704;28;19921;-68
2022/04/01 15:39:20;;;;;;;;;;;;;;;;;;4993772;28;19944;-67
2022/04/01 15:41:46;;;;;;;;;;;;;;;;;;5012577;28;19916;-67
2022/04/01 15:44:12;;;;;;;;;;;;;;;;;;5013309;28;20254;-67
2022/04/01 15:46:38;;;;;;;;;;;;;;;;;;4998474;28;20157;-67
2022/04/01 15:49:06;;;;;;;;;;;;;;;;;;4996841;28;21058;-67
2022/04/01 15:51:32;;;;;;;;;;;;;;;;;;5011875;28;20661;-67
2022/04/01 15:53:58;;;;;;;;;;;;;;;;;;5007545;28;19924;-67
2022/04/01 15:56:24;;;;;;;;;;;;;;;;;;4994010;28;20012;-68
2022/04/01 15:58:50;;;;;;;;;;;;;;;;;;5007727;28;19917;-67
2022/04/01 16:01:16;;;;;;;;;;;;;;;;;;5004216;28;19928;-67
2022/04/01 16:03:42;;;;;;;;;;;;;;;;;;5006136;28;19924;-67
2022/04/01 16:06:08;;;;;;;;;;;;;;;;;;5005766;28;19917;-66
2022/04/01 16:08:34;;;;;;;;;;;;;;;;;;4990380;28;19921;-68
2022/04/01 16:11:00;;;;;;;;;;;;;;;;;;5000893;28;19920;-68
2022/04/01 16:13:27;;;;;;;;;;;;;;;;;;5008874;28;19921;-68
2022/04/01 16:15:53;;;;;;;;;;;;;;;;;;5012983;28;19917;-67
2022/04/01 16:18:19;;;;;;;;;;;;;;;;;;5009891;28;20554;-66
2022/04/01 16:20:46;;;;;;;;;;;;;;;;;;5009250;28;19924;-68
2022/04/01 16:23:12;;;;;;;;;;;;;;;;;;4995790;28;20545;-70
2022/04/01 16:25:38;;;;;;;;;;;;;;;;;;4975873;28;20356;-70
2022/04/01 16:28:04;;;;;;;;;;;;;;;;;;4958715;28;19923;-71
2022/04/01 16:30:31;;;;;;;;;;;;;;;;;;5019446;28;20661;-70
2022/04/01 16:32:57;;;;;;;;;;;;;;;;;;5004364;28;19921;-70
2022/04/01 16:35:23;;;;;;;;;;;;;;;;;;5004316;28;20088;-70
2022/04/01 16:37:49;;;;;;;;;;;;;;;;;;5013708;28;19921;-70
2022/04/01 16:40:15;;;;;;;;;;;;;;;;;;5007551;28;20012;-69
2022/04/01 16:42:41;;;;;;;;;;;;;;;;;;5009804;28;20434;-66
2022/04/01 16:45:08;;;;;;;;;;;;;;;;;;4988135;28;20805;-66
2022/04/01 16:47:35;;;;;;;;;;;;;;;;;;4984391;28;20331;-73
2022/04/01 16:50:01;;;;;;;;;;;;;;;;;;5014691;28;19921;-67
2022/04/01 16:52:27;;;;;;;;;;;;;;;;;;5004263;28;19923;-68